Terminal Aerodrome Forecast
Issued by NWS Corpus Christi, TX

Home | Current Version | Previous Version | Text Only | Print | Product List | Glossary On
Versions: 1 2 3 4 5 6 7 8 9 10 11 12 13 14 15 16 17
830
FTUS44 KCRP 262329
TAFCRP
TAF
KCRP 262329Z 2700/2724 35014KT P6SM SKC
     FM270500 03015G22KT P6SM SKC
     FM271200 09012KT P6SM SKC
     FM271700 14012G18KT P6SM SKC=

USA.gov is the U.S. government's official web portal to all federal, state and local government web resources and services.